KFXE

Fort Lauderdale Executive Airport

Fort Lauderdale, Florida, USA
KFXE 181132Z 1812/1912 VRB04KT P6SM FEW020 SCT050 SCT250 FM181500 07010KT P6SM VCSH FEW030 SCT250 FM181700 09012KT P6SM VCSH SCT030 SCT050 BKN250 FM190100 08007KT P6SM SCT060 BKN250
Issued Valid From Valid To
Jun-18 @ 11:32 UTC
(2 hours ago)
Jun-18 @ 12:00 UTC
(an hour ago)
Jun-19 @ 12:00 UTC
(in 23 hours)
Jun-18 @ 12:00 to Jun-18 @ 15:00
KFXE 181132Z 1812/1912 VRB04KT P6SM FEW020 SCT050 SCT250
Wind Visibility Clouds
Variable at 4 knots Greater than 6 miles
  • Few at 2,000' AGL
  • Scattered at 5,000' AGL
  • Scattered at 25,000' AGL
From Jun-18 @ 15:00 to Jun-18 @ 17:00
FM181500 07010KT P6SM VCSH FEW030 SCT250
Wind Visibility Clouds
70° at 10 knots Greater than 6 miles
  • Few at 3,000' AGL
  • Scattered at 25,000' AGL
From Jun-18 @ 17:00 to Jun-19 @ 01:00
FM181700 09012KT P6SM VCSH SCT030 SCT050 BKN250
Wind Visibility Clouds
90° at 12 knots Greater than 6 miles
  • Scattered at 3,000' AGL
  • Scattered at 5,000' AGL
  • Broken at 25,000' AGL
From Jun-19 @ 01:00 to Jun-19 @ 12:00
FM190100 08007KT P6SM SCT060 BKN250
Wind Visibility Clouds
80° at 7 knots Greater than 6 miles
  • Scattered at 6,000' AGL
  • Broken at 25,000' AGL
KFXE 181132Z 1812/1912 VRB04KT P6SM FEW020 SCT050 SCT250 FM181500 07010KT P6SM VCSH FEW030 SCT250 FM181700 09012KT P6SM VCSH SCT030 SCT050 BKN250 FM190100 08007KT P6SM SCT060 BKN250
Issued Jun-18 @ 11:32 UTC
(2 hours ago)
Valid From Jun-18 @ 12:00 UTC
(an hour ago)
Valid To Jun-19 @ 12:00 UTC
(in 23 hours)
Jun-18 @ 12:00 - Jun-18 @ 15:00
Wind Visibility
Variable at 4 knots Greater than 6 miles
Clouds
  • Few at 2,000' AGL
  • Scattered at 5,000' AGL
  • Scattered at 25,000' AGL
From Jun-18 @ 15:00 - Jun-18 @ 17:00
Wind Visibility
70° at 10 knots Greater than 6 miles
Clouds
  • Few at 3,000' AGL
  • Scattered at 25,000' AGL
From Jun-18 @ 17:00 - Jun-19 @ 01:00
Wind Visibility
90° at 12 knots Greater than 6 miles
Clouds
  • Scattered at 3,000' AGL
  • Scattered at 5,000' AGL
  • Broken at 25,000' AGL
From Jun-19 @ 01:00 - Jun-19 @ 12:00
Wind Visibility
80° at 7 knots Greater than 6 miles
Clouds
  • Scattered at 6,000' AGL
  • Broken at 25,000' AGL